18:52
Airports
History
Links
Donate
Help keep this website running!
PayPal
Bitcoin
This page is community maintained. The information is intended for PC simulator navigation or reference.
Always use approved charts for navigation.
MUBA
Baracoa Gustavo Rizo
Baracoa Gustavo Rizo (MUBA)
Baracoa, Guantanamo, Cuba
(C)
Lat/Lng:20° 21' 55.14" N / 74° 30' 22.35" W
20.365317 / -74.506207
Elevation:33'ft / 10mMSL
ID / ICAO:MUBA
Runways:1
Longest:16-34
Concrete 1,803m / 5,914ft
Controlled:Yes
METAR11:54 GMT 2014-08-24
Altimeter: 29.94
Visibility: 6.2 statute miles
Wind: 0 knots (from 000°)
Temp: 26°c / 79°f
Humidity: 88.8%

METAR: MUBA 241154Z 00000KT 9999 SCT020 BKN070 26/24 Q1014

(Powered by phpweather)
Airport Radio Frequencies
Tower: 122.5
Nearby VORs <50NM
Nearby NDBs
Runway 16 / 34
Dimensions:1802.5 x 29.9m 5914' x 98'ft
Surface:Concrete
Edge Lights:Medium intensity
Runway 16 [A]Runway 34 [B]
Heading:155°TH 335°TH
Lat:
Lng:
20° 22' 21.66"N
74° 30' 35.47"W
20° 21' 28.62"N
74° 30' 9.22"W
User Notes and Comments
20° 21' 55.14" N / 74° 30' 22.35" W
Distance To
Airport ID:
Nearby Airports
(C) ORESTES ACOSTA 33.5 NM
MUMO ( WX ) NW 306°
(C) MARIANA GRAJALES 46.5 NM
MUGT WSW 245°
(C) Guantanamo Bay Ns 55.4 NM
MUGM SW 235°
(C) Matthew Town 68.7 NM
MYIG NE 52°
(C) Santiago de Cuba Antonio Maceo Intl 90.3 NM
MUCU ( WX ) WSW 252°
(C) Port de Paix 111.5 NM
MTPX ESE 105°
(C) Jeremie 119.4 NM
MTJE S 169°
VFR Chart
Flight Planning at SkyVector.com